createdAt,value
2022-09-20T00:10:28.722Z,11.75
2022-09-20T00:25:18.575Z,11.72
2022-09-20T00:40:09.145Z,11.63
2022-09-20T00:55:00.462Z,11.51
2022-09-20T01:09:51.808Z,11.52
2022-09-20T01:24:50.767Z,11.48
2022-09-20T01:40:05.979Z,11.40
2022-09-20T01:55:23.169Z,11.33
2022-09-20T02:10:30.938Z,11.34
2022-09-20T02:25:53.367Z,11.32
2022-09-20T02:41:12.269Z,11.31
2022-09-20T02:56:21.021Z,11.38
2022-09-20T03:11:16.854Z,11.46
2022-09-20T03:26:23.448Z,11.50
2022-09-20T03:41:44.980Z,11.52
2022-09-20T03:57:11.042Z,11.51
2022-09-20T04:12:08.574Z,11.49
2022-09-20T04:27:24.266Z,11.44
2022-09-20T04:42:35.810Z,11.42
2022-09-20T04:58:06.055Z,11.35
2022-09-20T05:13:39.761Z,11.32
2022-09-20T05:29:04.632Z,11.26
2022-09-20T05:44:05.279Z,11.29
2022-09-20T05:59:30.910Z,11.34
2022-09-20T06:14:46.786Z,11.49
2022-09-20T06:29:43.612Z,11.71
2022-09-20T06:44:35.506Z,11.96
2022-09-20T06:59:28.025Z,12.24
2022-09-20T07:14:24.097Z,12.28
2022-09-20T07:29:11.068Z,12.46
2022-09-20T07:44:03.067Z,12.69
2022-09-20T08:14:06.980Z,13.29
2022-09-20T08:28:45.081Z,13.80
2022-09-20T08:43:36.193Z,14.23
2022-09-20T08:58:31.646Z,14.33
2022-09-20T09:13:22.966Z,14.39
2022-09-20T09:28:15.071Z,14.61
2022-09-20T09:43:07.045Z,15.02
2022-09-20T09:57:58.045Z,15.02
2022-09-20T10:13:08.467Z,15.42
2022-09-20T10:28:20.887Z,15.68
2022-09-20T10:43:38.045Z,15.67
2022-09-20T10:58:48.128Z,15.61
2022-09-20T11:13:42.676Z,16.01
2022-09-20T11:28:34.874Z,16.23
2022-09-20T11:43:31.560Z,16.22
2022-09-20T11:58:17.265Z,16.12
2022-09-20T12:13:20.843Z,15.99
2022-09-20T12:28:17.997Z,16.75
2022-09-20T12:43:10.742Z,17.50
2022-09-20T12:58:15.281Z,17.28
2022-09-20T13:13:12.648Z,16.93
2022-09-20T13:28:21.065Z,16.76
2022-09-20T13:43:35.948Z,17.47
2022-09-20T13:58:34.826Z,17.86
2022-09-20T14:13:26.885Z,18.39
2022-09-20T14:28:18.684Z,18.15
2022-09-20T14:43:08.835Z,17.43
2022-09-20T14:57:59.512Z,16.96
2022-09-20T15:12:50.098Z,16.72
2022-09-20T15:27:41.655Z,16.77
2022-09-20T15:42:33.790Z,16.59
2022-09-20T15:57:23.943Z,16.32
2022-09-20T16:12:14.346Z,16.18
2022-09-20T16:27:05.012Z,15.99
2022-09-20T16:41:55.515Z,15.77
2022-09-20T16:56:46.455Z,15.62
2022-09-20T17:11:37.874Z,15.51
2022-09-20T17:26:31.733Z,15.30
2022-09-20T17:41:24.891Z,15.04
2022-09-20T17:56:15.556Z,14.86
2022-09-20T18:11:06.035Z,14.72
2022-09-20T18:26:08.465Z,14.58
2022-09-20T18:41:04.733Z,14.48
2022-09-20T18:55:56.086Z,14.43
2022-09-20T19:10:56.514Z,14.42
2022-09-20T19:25:51.172Z,14.38
2022-09-20T19:41:16.353Z,14.21
2022-09-20T19:56:25.312Z,14.12
2022-09-20T20:11:44.249Z,14.05
2022-09-20T20:26:39.052Z,13.92
2022-09-20T20:41:29.729Z,13.83
2022-09-20T20:56:20.242Z,13.74
2022-09-20T21:11:14.299Z,13.71
2022-09-20T21:26:09.904Z,13.54
2022-09-20T21:41:02.574Z,13.22
2022-09-20T21:55:58.249Z,13.00
2022-09-20T22:26:08.675Z,12.51
2022-09-20T22:41:06.883Z,12.32
2022-09-20T22:56:02.735Z,12.23
2022-09-20T23:11:00.216Z,12.15
2022-09-20T23:25:52.920Z,11.89
2022-09-20T23:40:42.806Z,11.74
2022-09-20T23:55:33.839Z,11.63
